createdAt,value
2023-04-15T00:00:58.491Z,93.17
2023-04-15T00:03:25.975Z,92.84
2023-04-15T00:05:54.206Z,94.01
2023-04-15T00:08:21.170Z,95.52
2023-04-15T00:10:48.136Z,95.46
2023-04-15T00:13:15.479Z,95.70
2023-04-15T00:15:43.312Z,95.26
2023-04-15T00:18:10.526Z,95.04
2023-04-15T00:20:37.748Z,94.91
2023-04-15T00:23:05.659Z,95.58
2023-04-15T00:25:32.989Z,95.99
2023-04-15T00:28:00.125Z,96.46
2023-04-15T00:30:27.041Z,97.00
2023-04-15T00:32:54.060Z,96.73
2023-04-15T00:35:21.664Z,97.12
2023-04-15T00:37:48.583Z,97.46
2023-04-15T00:40:19.594Z,97.24
2023-04-15T00:42:47.380Z,97.04
2023-04-15T00:45:14.383Z,96.27
2023-04-15T00:47:43.566Z,96.55
2023-04-15T00:50:11.602Z,96.29
2023-04-15T00:52:39.622Z,95.81
2023-04-15T00:55:07.812Z,95.21
2023-04-15T00:57:36.346Z,95.44
2023-04-15T01:00:05.668Z,95.12
2023-04-15T01:02:33.552Z,93.96
2023-04-15T01:05:00.954Z,95.97
2023-04-15T01:07:27.912Z,96.97
2023-04-15T01:09:54.865Z,97.26
2023-04-15T01:12:21.890Z,96.81
2023-04-15T01:14:48.745Z,97.40
2023-04-15T01:17:15.744Z,97.12
2023-04-15T01:19:42.887Z,97.15
2023-04-15T01:22:10.169Z,96.81
2023-04-15T01:24:37.710Z,97.87
2023-04-15T01:27:05.557Z,98.32
2023-04-15T01:29:37.546Z,97.72
2023-04-15T01:32:04.584Z,97.18
2023-04-15T01:34:33.625Z,97.22
2023-04-15T01:37:02.503Z,99.07
2023-04-15T01:39:29.468Z,100.00
2023-04-15T01:41:57.371Z,100.00
2023-04-15T01:44:24.322Z,100.00
2023-04-15T01:46:51.295Z,100.00
2023-04-15T01:49:19.057Z,100.00
2023-04-15T01:51:46.028Z,100.00
2023-04-15T01:54:13.004Z,100.00
2023-04-15T01:56:39.975Z,100.00
2023-04-15T01:59:06.894Z,100.00
2023-04-15T02:01:34.196Z,100.00
2023-04-15T02:04:01.243Z,99.39
2023-04-15T02:06:28.297Z,99.26
2023-04-15T02:08:55.224Z,99.65
2023-04-15T02:11:23.113Z,99.27
2023-04-15T02:13:50.200Z,99.54
2023-04-15T02:16:20.661Z,99.96
2023-04-15T02:18:48.161Z,100.00
2023-04-15T02:21:15.419Z,100.00
2023-04-15T02:23:43.993Z,100.00
2023-04-15T02:26:10.990Z,100.00
2023-04-15T02:28:38.936Z,99.86
2023-04-15T02:31:07.835Z,99.68
2023-04-15T02:33:34.972Z,100.00
2023-04-15T02:36:01.888Z,100.00
2023-04-15T02:38:28.818Z,100.00
2023-04-15T02:40:55.788Z,100.00
2023-04-15T02:43:22.849Z,100.00
2023-04-15T02:45:50.087Z,99.57
2023-04-15T02:48:19.427Z,98.75
2023-04-15T02:50:47.920Z,98.34
2023-04-15T02:53:14.930Z,97.35
2023-04-15T02:55:43.025Z,96.15
2023-04-15T02:58:10.068Z,95.62
2023-04-15T03:00:37.022Z,98.12
2023-04-15T03:03:06.144Z,99.58
2023-04-15T03:05:33.401Z,100.00
2023-04-15T03:08:01.317Z,100.00
2023-04-15T03:10:28.562Z,100.00
2023-04-15T03:12:55.657Z,100.00
2023-04-15T03:15:23.125Z,100.00
2023-04-15T03:17:50.102Z,100.00
2023-04-15T03:20:17.263Z,100.00
2023-04-15T03:22:44.194Z,100.00
2023-04-15T03:25:11.405Z,100.00
2023-04-15T03:27:39.135Z,100.00
2023-04-15T03:30:07.725Z,100.00
2023-04-15T03:32:34.852Z,100.00
2023-04-15T03:35:01.783Z,100.00
2023-04-15T03:37:28.679Z,100.00
2023-04-15T03:39:56.676Z,100.00
2023-04-15T03:42:23.881Z,99.99
2023-04-15T03:44:50.904Z,100.00
2023-04-15T03:47:17.762Z,100.00
2023-04-15T03:49:44.646Z,100.00
2023-04-15T03:52:11.641Z,100.00
2023-04-15T03:54:38.633Z,100.00
2023-04-15T03:57:05.781Z,100.00
2023-04-15T03:59:32.665Z,100.00
2023-04-15T04:01:59.785Z,100.00
2023-04-15T04:04:26.882Z,100.00
2023-04-15T04:06:53.847Z,100.00
2023-04-15T04:09:20.762Z,100.00
2023-04-15T04:11:47.757Z,100.00
2023-04-15T04:14:14.650Z,100.00
2023-04-15T04:16:42.131Z,100.00
2023-04-15T04:19:09.120Z,100.00
2023-04-15T04:21:36.546Z,100.00
2023-04-15T04:24:04.610Z,100.00
2023-04-15T04:26:31.594Z,100.00
2023-04-15T04:28:58.832Z,100.00
2023-04-15T04:31:26.266Z,100.00
2023-04-15T04:33:54.226Z,100.00
2023-04-15T04:36:21.106Z,100.00
2023-04-15T04:38:48.028Z,100.00
2023-04-15T04:41:15.054Z,100.00
2023-04-15T04:43:41.926Z,100.00
2023-04-15T04:46:09.230Z,100.00
2023-04-15T04:48:36.435Z,100.00
2023-04-15T04:51:03.569Z,100.00
2023-04-15T04:53:30.999Z,100.00
2023-04-15T04:55:58.212Z,100.00
2023-04-15T04:58:25.146Z,100.00
2023-04-15T05:00:52.123Z,100.00
2023-04-15T05:03:20.368Z,100.00
2023-04-15T05:05:49.299Z,100.00
2023-04-15T05:08:16.665Z,100.00
2023-04-15T05:10:43.595Z,100.00
2023-04-15T05:13:10.539Z,100.00
2023-04-15T05:15:39.836Z,100.00
2023-04-15T05:18:07.056Z,100.00
2023-04-15T05:20:34.112Z,100.00
2023-04-15T05:23:01.108Z,100.00
2023-04-15T05:25:28.012Z,100.00
2023-04-15T05:27:54.874Z,100.00
2023-04-15T05:30:22.267Z,100.00
2023-04-15T05:32:49.175Z,99.60
2023-04-15T05:35:16.293Z,97.77
2023-04-15T05:37:43.292Z,97.72
2023-04-15T05:40:10.638Z,96.99
2023-04-15T05:42:37.708Z,97.17
2023-04-15T05:45:09.042Z,96.77
2023-04-15T05:47:37.411Z,96.79
2023-04-15T05:50:05.428Z,96.88
2023-04-15T05:52:32.677Z,95.67
2023-04-15T05:54:59.616Z,95.85
2023-04-15T05:57:26.479Z,95.08
2023-04-15T05:59:53.656Z,95.42
2023-04-15T06:02:21.189Z,95.85
2023-04-15T06:04:48.570Z,97.04
2023-04-15T06:07:15.754Z,97.00
2023-04-15T06:09:42.619Z,96.72
2023-04-15T06:12:12.330Z,97.97
2023-04-15T06:14:40.543Z,98.87
2023-04-15T06:17:07.704Z,98.15
2023-04-15T06:19:36.273Z,99.93
2023-04-15T06:22:03.624Z,99.48
2023-04-15T06:24:31.516Z,100.00
2023-04-15T06:26:58.477Z,100.00
2023-04-15T06:29:25.418Z,100.00
2023-04-15T06:31:52.409Z,99.11
2023-04-15T06:34:19.392Z,98.51
2023-04-15T06:36:46.614Z,97.08
2023-04-15T06:39:13.532Z,95.96
2023-04-15T06:41:40.812Z,96.71
2023-04-15T06:44:07.784Z,96.42
2023-04-15T06:46:34.748Z,93.48
2023-04-15T06:49:01.884Z,89.64
2023-04-15T06:51:29.058Z,90.19
2023-04-15T06:53:56.911Z,88.73
2023-04-15T06:56:23.921Z,91.76
2023-04-15T06:58:51.191Z,91.87
2023-04-15T07:01:19.843Z,92.53
2023-04-15T07:03:46.936Z,89.82
2023-04-15T07:06:14.365Z,90.54
2023-04-15T07:08:41.884Z,91.21
2023-04-15T07:11:08.900Z,90.16
2023-04-15T07:13:36.332Z,87.97
2023-04-15T07:16:03.231Z,88.35
2023-04-15T07:18:30.535Z,85.99
2023-04-15T07:20:57.469Z,91.89
2023-04-15T07:23:24.528Z,90.29
2023-04-15T07:25:52.232Z,89.75
2023-04-15T07:28:19.130Z,87.92
2023-04-15T07:30:46.201Z,87.54
2023-04-15T07:33:13.731Z,87.34
2023-04-15T07:35:40.683Z,85.41
2023-04-15T07:38:07.558Z,88.27
2023-04-15T07:40:34.539Z,89.73
2023-04-15T07:43:01.431Z,88.38
2023-04-15T07:45:28.509Z,85.64
2023-04-15T07:47:56.768Z,87.77
2023-04-15T07:50:24.509Z,86.76
2023-04-15T07:52:52.139Z,85.00
2023-04-15T07:55:21.472Z,86.53
2023-04-15T07:57:49.805Z,87.53
2023-04-15T08:00:17.170Z,85.33
2023-04-15T08:02:44.376Z,85.79
2023-04-15T08:05:11.420Z,86.05
2023-04-15T08:07:38.537Z,85.33
2023-04-15T08:10:06.435Z,83.09
2023-04-15T08:12:33.553Z,82.19
2023-04-15T08:15:01.112Z,81.24
2023-04-15T08:17:28.411Z,82.20
2023-04-15T08:19:55.354Z,78.55
2023-04-15T08:22:22.554Z,78.70
2023-04-15T08:24:49.419Z,77.32
2023-04-15T08:27:16.317Z,76.30
2023-04-15T08:29:43.309Z,75.04
2023-04-15T08:32:10.643Z,75.50
2023-04-15T08:34:37.644Z,75.25
2023-04-15T08:37:04.547Z,75.00
2023-04-15T08:39:31.585Z,74.24
2023-04-15T08:42:05.640Z,73.50
2023-04-15T08:44:36.877Z,75.69
2023-04-15T08:47:08.245Z,73.22
2023-04-15T08:49:41.699Z,73.15
2023-04-15T08:52:09.818Z,72.64
2023-04-15T08:54:37.630Z,74.24
2023-04-15T08:57:04.712Z,74.09
2023-04-15T08:59:31.989Z,73.80
2023-04-15T09:01:59.046Z,72.54
2023-04-15T09:04:26.327Z,72.66
2023-04-15T09:06:53.260Z,72.20
2023-04-15T09:09:20.284Z,71.48
2023-04-15T09:11:47.315Z,70.65
2023-04-15T09:14:14.250Z,69.54
2023-04-15T09:16:58.707Z,68.68
2023-04-15T09:19:26.239Z,67.50
2023-04-15T09:21:59.572Z,69.49
2023-04-15T09:24:38.152Z,68.33
2023-04-15T09:27:06.290Z,70.28
2023-04-15T09:29:33.559Z,70.76
2023-04-15T09:32:17.089Z,69.43
2023-04-15T09:34:44.630Z,69.38
2023-04-15T09:37:24.292Z,68.81
2023-04-15T09:39:58.363Z,70.85
2023-04-15T09:42:26.733Z,69.35
2023-04-15T09:44:54.090Z,65.12
2023-04-15T09:47:32.265Z,65.82
2023-04-15T09:50:00.968Z,66.15
2023-04-15T09:52:28.874Z,67.20
2023-04-15T09:54:59.260Z,68.57
2023-04-15T09:57:34.341Z,69.74
2023-04-15T10:00:01.207Z,67.04
2023-04-15T10:02:29.722Z,67.26
2023-04-15T10:04:57.544Z,69.52
2023-04-15T10:07:26.311Z,66.43
2023-04-15T10:09:53.609Z,66.01
2023-04-15T10:12:22.456Z,69.17
2023-04-15T10:14:59.958Z,66.58
2023-04-15T10:17:35.419Z,68.00
2023-04-15T10:20:07.118Z,68.19
2023-04-15T10:22:35.045Z,70.43
2023-04-15T10:25:04.260Z,70.74
2023-04-15T10:27:31.928Z,71.65
2023-04-15T10:30:01.036Z,69.30
2023-04-15T10:32:28.211Z,68.68
2023-04-15T10:34:55.934Z,68.10
2023-04-15T10:37:34.376Z,65.14
2023-04-15T10:40:02.984Z,66.91
2023-04-15T10:42:35.400Z,63.75
2023-04-15T10:45:02.514Z,65.85
2023-04-15T10:47:29.489Z,66.28
2023-04-15T10:50:01.699Z,65.64
2023-04-15T10:52:29.730Z,62.51
2023-04-15T10:55:12.363Z,61.13
2023-04-15T10:57:41.562Z,63.13
2023-04-15T11:00:16.856Z,60.98
2023-04-15T11:02:58.526Z,59.21
2023-04-15T11:05:53.396Z,60.00
2023-04-15T11:08:21.253Z,62.56
2023-04-15T11:10:48.041Z,60.72
2023-04-15T11:13:25.123Z,58.23
2023-04-15T11:15:58.590Z,59.96
2023-04-15T11:18:30.647Z,59.52
2023-04-15T11:21:04.445Z,60.73
2023-04-15T11:23:47.376Z,59.75
2023-04-15T11:26:14.777Z,59.84
2023-04-15T11:28:45.007Z,59.14
2023-04-15T11:31:13.763Z,58.42
2023-04-15T11:34:01.526Z,62.79
2023-04-15T11:36:31.803Z,58.48
2023-04-15T11:39:00.178Z,57.82
2023-04-15T11:41:27.287Z,57.89
2023-04-15T11:43:54.167Z,61.50
2023-04-15T11:46:22.963Z,62.22
2023-04-15T11:48:50.249Z,60.40
2023-04-15T11:51:17.423Z,56.85
2023-04-15T11:53:52.357Z,57.17
2023-04-15T11:56:24.598Z,58.42
2023-04-15T11:58:59.330Z,60.91
2023-04-15T12:01:36.991Z,59.40
2023-04-15T12:04:13.469Z,61.00
2023-04-15T12:06:41.341Z,60.33
2023-04-15T12:09:16.603Z,63.63
2023-04-15T12:11:57.608Z,60.72
2023-04-15T12:14:29.639Z,58.93
2023-04-15T12:17:02.799Z,56.77
2023-04-15T12:19:35.296Z,59.73
2023-04-15T12:22:10.226Z,59.27
2023-04-15T12:24:38.614Z,59.85
2023-04-15T12:27:08.275Z,58.63
2023-04-15T12:29:38.641Z,56.62
2023-04-15T12:32:10.887Z,58.88
2023-04-15T12:34:41.829Z,60.49
2023-04-15T12:37:11.213Z,56.19
2023-04-15T12:39:44.415Z,55.65
2023-04-15T12:42:12.588Z,55.21
2023-04-15T12:44:40.278Z,58.11
2023-04-15T12:47:11.431Z,59.02
2023-04-15T12:49:39.474Z,58.64
2023-04-15T12:52:06.744Z,58.29
2023-04-15T12:54:34.570Z,58.81
2023-04-15T12:57:04.666Z,56.61
2023-04-15T12:59:33.671Z,59.08
2023-04-15T13:02:01.249Z,58.68
2023-04-15T13:04:30.779Z,57.33
2023-04-15T13:06:58.239Z,57.21
2023-04-15T13:09:25.192Z,58.79
2023-04-15T13:11:52.850Z,60.84
2023-04-15T13:14:19.962Z,63.41
2023-04-15T13:16:47.181Z,60.19
2023-04-15T13:19:14.351Z,60.31
2023-04-15T13:21:41.498Z,61.06
2023-04-15T13:24:09.705Z,61.81
2023-04-15T13:26:36.765Z,64.33
2023-04-15T13:29:06.824Z,66.87
2023-04-15T13:31:33.759Z,63.41
2023-04-15T13:34:00.905Z,63.76
2023-04-15T13:36:27.841Z,64.16
2023-04-15T13:38:55.537Z,65.01
2023-04-15T13:41:22.452Z,64.94
2023-04-15T13:43:49.414Z,66.96
2023-04-15T13:46:16.704Z,66.40
2023-04-15T13:48:43.679Z,65.10
2023-04-15T13:51:10.711Z,65.43
2023-04-15T13:53:38.818Z,64.55
2023-04-15T13:56:08.722Z,66.42
2023-04-15T13:58:37.300Z,63.07
2023-04-15T14:01:06.316Z,62.44
2023-04-15T14:03:36.546Z,61.87
2023-04-15T14:06:04.983Z,61.49
2023-04-15T14:08:31.957Z,61.55
2023-04-15T14:10:59.209Z,61.32
2023-04-15T14:13:26.188Z,63.28
2023-04-15T14:15:53.226Z,60.69
2023-04-15T14:18:20.328Z,60.65
2023-04-15T14:20:47.236Z,62.06
2023-04-15T14:23:14.174Z,62.86
2023-04-15T14:25:41.135Z,60.60
2023-04-15T14:28:07.988Z,60.53
2023-04-15T14:30:35.250Z,59.03
2023-04-15T14:33:02.516Z,60.66
2023-04-15T14:35:29.876Z,58.58
2023-04-15T14:37:56.943Z,60.50
2023-04-15T14:40:23.930Z,60.62
2023-04-15T14:42:50.941Z,59.16
2023-04-15T14:45:18.342Z,58.98
2023-04-15T14:47:45.389Z,58.00
2023-04-15T14:50:12.762Z,62.24
2023-04-15T14:52:39.707Z,63.31
2023-04-15T14:55:08.544Z,59.24
2023-04-15T14:57:36.022Z,59.50
2023-04-15T15:00:05.302Z,59.27
2023-04-15T15:02:39.062Z,57.11
2023-04-15T15:05:07.244Z,57.11
2023-04-15T15:07:34.285Z,58.47
2023-04-15T15:10:01.218Z,56.27
2023-04-15T15:12:31.432Z,57.53
2023-04-15T15:14:58.621Z,58.20
2023-04-15T15:17:25.864Z,58.06
2023-04-15T15:19:53.022Z,58.12
2023-04-15T15:22:21.450Z,58.77
2023-04-15T15:24:48.836Z,58.23
2023-04-15T15:27:15.767Z,60.83
2023-04-15T15:29:42.651Z,60.77
2023-04-15T15:32:09.555Z,62.18
2023-04-15T15:34:36.605Z,62.33
2023-04-15T15:37:03.655Z,63.94
2023-04-15T15:39:30.544Z,64.73
2023-04-15T15:41:57.728Z,67.14
2023-04-15T15:44:24.648Z,69.50
2023-04-15T15:46:51.611Z,72.87
2023-04-15T15:49:19.720Z,74.61
2023-04-15T15:51:46.928Z,75.65
2023-04-15T15:54:13.811Z,76.91
2023-04-15T15:56:42.132Z,78.44
2023-04-15T15:59:09.071Z,78.74
2023-04-15T16:01:36.013Z,78.92
2023-04-15T16:04:03.064Z,80.72
2023-04-15T16:06:32.780Z,81.72
2023-04-15T16:09:01.735Z,83.51
2023-04-15T16:11:29.853Z,84.82
2023-04-15T16:13:57.043Z,83.56
2023-04-15T16:16:24.270Z,84.06
2023-04-15T16:18:51.288Z,87.04
2023-04-15T16:21:19.554Z,87.00
2023-04-15T16:23:46.772Z,88.28
2023-04-15T16:26:13.945Z,90.37
2023-04-15T16:28:40.908Z,92.97
2023-04-15T16:31:07.917Z,94.06
2023-04-15T16:33:34.905Z,98.54
2023-04-15T16:36:01.807Z,100.00
2023-04-15T16:38:28.653Z,100.00
2023-04-15T16:40:59.420Z,100.00
2023-04-15T16:43:27.489Z,100.00
2023-04-15T16:45:54.457Z,100.00
2023-04-15T16:48:21.640Z,100.00
2023-04-15T16:50:49.235Z,100.00
2023-04-15T16:53:16.300Z,100.00
2023-04-15T16:55:43.243Z,100.00
2023-04-15T16:58:10.176Z,100.00
2023-04-15T17:00:37.241Z,100.00
2023-04-15T17:03:05.906Z,100.00
2023-04-15T17:05:33.510Z,100.00
2023-04-15T17:08:00.659Z,100.00
2023-04-15T17:10:28.324Z,100.00
2023-04-15T17:12:59.900Z,100.00
2023-04-15T17:15:27.346Z,100.00
2023-04-15T17:17:54.510Z,100.00
2023-04-15T17:20:21.516Z,100.00
2023-04-15T17:22:49.200Z,100.00
2023-04-15T17:25:16.192Z,100.00
2023-04-15T17:27:43.080Z,100.00
2023-04-15T17:30:10.711Z,100.00
2023-04-15T17:32:40.023Z,100.00
2023-04-15T17:35:08.081Z,100.00
2023-04-15T17:37:35.805Z,100.00
2023-04-15T17:40:03.494Z,100.00
2023-04-15T17:42:30.688Z,100.00
2023-04-15T17:44:57.592Z,100.00
2023-04-15T17:47:24.508Z,100.00
2023-04-15T17:49:51.400Z,100.00
2023-04-15T17:52:18.289Z,100.00
2023-04-15T17:54:46.840Z,100.00
2023-04-15T17:57:13.807Z,100.00
2023-04-15T17:59:44.066Z,100.00
2023-04-15T18:02:11.647Z,100.00
2023-04-15T18:04:39.627Z,100.00
2023-04-15T18:07:06.854Z,100.00
2023-04-15T18:09:33.908Z,100.00
2023-04-15T18:12:02.114Z,100.00
2023-04-15T18:14:34.710Z,100.00
2023-04-15T18:17:05.501Z,100.00
2023-04-15T18:19:32.880Z,100.00
2023-04-15T18:22:00.224Z,100.00
2023-04-15T18:24:27.719Z,100.00
2023-04-15T18:26:54.689Z,100.00
2023-04-15T18:29:21.920Z,100.00
2023-04-15T18:31:49.077Z,100.00
2023-04-15T18:34:16.098Z,100.00
2023-04-15T18:36:43.089Z,100.00
2023-04-15T18:39:10.404Z,100.00
2023-04-15T18:41:37.323Z,100.00
2023-04-15T18:44:04.267Z,100.00
2023-04-15T18:46:31.168Z,100.00
2023-04-15T18:48:58.106Z,100.00
2023-04-15T18:51:25.848Z,100.00
2023-04-15T18:53:52.855Z,100.00
2023-04-15T18:56:19.884Z,100.00
2023-04-15T18:59:22.898Z,100.00
2023-04-15T19:01:34.276Z,100.00
2023-04-15T19:04:02.431Z,100.00
2023-04-15T19:06:29.386Z,100.00
2023-04-15T19:08:58.445Z,100.00
2023-04-15T19:11:26.128Z,100.00
2023-04-15T19:13:53.140Z,100.00
2023-04-15T19:16:20.503Z,100.00
2023-04-15T19:18:47.432Z,100.00
2023-04-15T19:21:14.856Z,100.00
2023-04-15T19:23:43.035Z,100.00
2023-04-15T19:26:11.390Z,100.00
2023-04-15T19:28:38.288Z,100.00
2023-04-15T19:31:05.404Z,100.00
2023-04-15T19:33:32.384Z,100.00
2023-04-15T19:36:05.515Z,100.00
2023-04-15T19:38:35.655Z,100.00
2023-04-15T19:41:02.630Z,100.00
2023-04-15T19:43:29.772Z,100.00
2023-04-15T19:45:56.716Z,100.00
2023-04-15T19:48:25.416Z,100.00
2023-04-15T19:50:52.368Z,100.00
2023-04-15T19:53:19.336Z,100.00
2023-04-15T19:55:47.191Z,100.00
2023-04-15T19:58:14.506Z,100.00
2023-04-15T20:00:42.182Z,100.00
2023-04-15T20:03:09.317Z,100.00
2023-04-15T20:05:36.384Z,100.00
2023-04-15T20:08:03.580Z,100.00
2023-04-15T20:10:31.949Z,100.00
2023-04-15T20:12:59.254Z,100.00
2023-04-15T20:15:26.412Z,100.00
2023-04-15T20:17:53.596Z,100.00
2023-04-15T20:20:21.008Z,100.00
2023-04-15T20:22:48.447Z,100.00
2023-04-15T20:25:15.722Z,100.00
2023-04-15T20:27:42.759Z,100.00
2023-04-15T20:30:10.291Z,100.00
2023-04-15T20:32:38.329Z,100.00
2023-04-15T20:35:06.887Z,100.00
2023-04-15T20:37:34.197Z,100.00
2023-04-15T20:40:01.874Z,100.00
2023-04-15T20:42:34.413Z,100.00
2023-04-15T20:45:02.029Z,100.00
2023-04-15T20:47:29.305Z,100.00
2023-04-15T20:49:56.486Z,100.00
2023-04-15T20:52:23.492Z,100.00
2023-04-15T20:54:51.192Z,100.00
2023-04-15T20:57:18.214Z,100.00
2023-04-15T20:59:45.293Z,100.00
2023-04-15T21:02:12.386Z,100.00
2023-04-15T21:04:39.440Z,100.00
2023-04-15T21:07:06.490Z,100.00
2023-04-15T21:09:33.409Z,100.00
2023-04-15T21:12:02.146Z,100.00
2023-04-15T21:14:29.786Z,100.00
2023-04-15T21:17:03.325Z,100.00
2023-04-15T21:19:30.426Z,100.00
2023-04-15T21:21:57.329Z,100.00
2023-04-15T21:24:24.293Z,100.00
2023-04-15T21:26:51.358Z,100.00
2023-04-15T21:29:18.507Z,100.00
2023-04-15T21:31:45.513Z,100.00
2023-04-15T21:34:12.665Z,100.00
2023-04-15T21:36:39.557Z,100.00
2023-04-15T21:39:06.948Z,100.00
2023-04-15T21:41:34.208Z,100.00
2023-04-15T21:44:01.253Z,100.00
2023-04-15T21:46:33.369Z,100.00
2023-04-15T21:49:02.627Z,100.00
2023-04-15T21:51:29.604Z,100.00
2023-04-15T21:53:56.491Z,100.00
2023-04-15T21:56:24.581Z,100.00
2023-04-15T21:58:57.099Z,100.00
2023-04-15T22:01:25.088Z,100.00
2023-04-15T22:03:52.325Z,100.00
2023-04-15T22:06:19.452Z,100.00
2023-04-15T22:08:56.054Z,100.00
2023-04-15T22:11:33.448Z,100.00
2023-04-15T22:14:00.689Z,100.00
2023-04-15T22:16:28.445Z,100.00
2023-04-15T22:18:56.088Z,100.00
2023-04-15T22:21:23.827Z,100.00
2023-04-15T22:23:52.156Z,100.00
2023-04-15T22:26:19.131Z,100.00
2023-04-15T22:28:46.165Z,100.00
2023-04-15T22:31:14.837Z,100.00
2023-04-15T22:33:41.811Z,100.00
2023-04-15T22:36:08.923Z,100.00
2023-04-15T22:38:36.122Z,100.00
2023-04-15T22:41:02.991Z,100.00
2023-04-15T22:43:29.867Z,100.00
2023-04-15T22:45:56.912Z,100.00
2023-04-15T22:48:24.062Z,100.00
2023-04-15T22:50:51.041Z,100.00
2023-04-15T22:53:18.407Z,100.00
2023-04-15T22:55:47.738Z,100.00
2023-04-15T22:58:16.325Z,100.00
2023-04-15T23:00:43.284Z,100.00
2023-04-15T23:03:10.926Z,100.00
2023-04-15T23:05:39.979Z,100.00
2023-04-15T23:08:07.741Z,100.00
2023-04-15T23:10:34.654Z,100.00
2023-04-15T23:13:01.511Z,100.00
2023-04-15T23:15:28.404Z,100.00
2023-04-15T23:17:55.459Z,100.00
2023-04-15T23:20:22.462Z,100.00
2023-04-15T23:22:49.368Z,100.00
2023-04-15T23:25:16.396Z,100.00
2023-04-15T23:27:43.265Z,100.00
2023-04-15T23:30:10.448Z,100.00
2023-04-15T23:32:37.364Z,100.00
2023-04-15T23:35:04.875Z,100.00
2023-04-15T23:37:31.880Z,100.00
2023-04-15T23:39:58.887Z,100.00
2023-04-15T23:42:26.272Z,100.00
2023-04-15T23:44:53.213Z,100.00
2023-04-15T23:47:20.888Z,100.00
2023-04-15T23:49:47.827Z,100.00
2023-04-15T23:52:14.859Z,100.00
2023-04-15T23:54:41.858Z,100.00
2023-04-15T23:57:08.782Z,100.00
2023-04-15T23:59:36.027Z,100.00
